Etusivu
METAR-TAF:

METAR-TAF

Lentoasemat :

Lüderitz, Namibia

Leveyspiiri: 26-41S, Pituuspiiri: 015-15E, korkeus merenpinnasta: 130 m

Tämänhetkinen sää

Tämä raportti tehtiin 58 minuuttia sitten, kello 10.00 UTC
Tuuli 7 kn etelästä/lounaasta
Lämpötila 20°C
Kosteus 60%
Ilmanpaine 1014 hPa

METAR: FYLZ 261000Z AUTO 20007KT //// // ////// 20/12 Q1014

Aika: 11:58 (10:58 UTC)

Sääennuste

Tämä raportti tehtiin 2 tuntia ja 58 minuuttia sitten, kello 08.00 UTC
Ennuste voimassa 26. päivästä klo 09 UTC - 26. päivään klo 18 UTC
Tuuli 6 kn etelästä/lounaasta
Näkyvyys 10 km tai enemmän
Hajonneita pilviä 1500 ft:n korkeudessa
Tulossa
26. päivästä klo 10 UTC - 26. päivään klo 12 UTC
Tuuli 10 kn lounaasta
Näkyvyys 10 km tai enemmän
ei pilviä alle 1500 m:ssä eikä cumulonimbus-pilviä

TAF: FYLZ 260800Z 2609/2618 21006KT 9999 BKN015 BECMG 2610/2612 22010KT CAVOK

Säähavainnot ja -ennusteet yli 4000 lentoasemalta (METAR- ja TAF-raportit).

Käytössä olevat sääasemat on merkitty karttaan keltaisilla ja punaisilla pisteillä.

Aseta hiiri pisteen päälle nähdäksesi sääaseman nimen.

Klikkaa sitten nähdäksesi säähavainnot ja -ennusteet.

Kartan vaihtaminen: klikkaa mustalla rastilla varustettuja vihreitä pisteitä, niin voit zoomata sisään; viivalla varustettua vihreää pistettä, niin voit zoomata ulos tai vihreitä nuolia, niin pääset viereisille kartoille.


METAR-TAF: